This is the latest recevied weather packets stored in our database for station/object N4TLC. If no packets are shown the sender has not sent any weather packets the latest 10 day(s).
| Time | Temp. | Humidity | Pressure | Rain* | Wind** | Luminosity | Snow |
|---|---|---|---|---|---|---|---|
| 1777246262 | 16.11° C | 66% | 1019.3 hPa | 0 mm | - | 25 W/m² | - |
| 1777245959 | 15.56° C | 66% | 1019.4 hPa | 0 mm | - | 25 W/m² | - |
| 1777245658 | 16.11° C | 65% | 1019.2 hPa | 0 mm | - | 26 W/m² | - |
| 1777245354 | 16.11° C | 66% | 1019.2 hPa | 0 mm | - | 38 W/m² | - |
| 1777245049 | 16.11° C | 66% | 1019.2 hPa | 0 mm | - | 48 W/m² | - |
| 1777244745 | 16.11° C | 66% | 1019.2 hPa | 0 mm | - | 63 W/m² | - |
| 1777244442 | 16.11° C | 65% | 1019.1 hPa | 0 mm | - | 45 W/m² | - |
| 1777244138 | 16.67° C | 64% | 1019.1 hPa | 0 mm | - | 33 W/m² | - |
| 1777243838 | 16.67° C | 63% | 1019.1 hPa | 0 mm | - | 56 W/m² | - |
| 1777243533 | 16.67° C | 62% | 1019 hPa | 0 mm | - | 153 W/m² | - |
| 1777243229 | 17.22° C | 61% | 1019 hPa | 0 mm | - | 90 W/m² | - |
| 1777242925 | 17.78° C | 60% | 1019.2 hPa | 0 mm | - | 85 W/m² | - |
| 1777242623 | 18.33° C | 58% | 1019 hPa | 0 mm | - | 121 W/m² | - |
| 1777242318 | 18.33° C | 59% | 1019 hPa | 0 mm | - | 242 W/m² | - |
| 1777242015 | 17.78° C | 62% | 1019 hPa | 0 mm | - | 283 W/m² | - |
| 1777241713 | 17.78° C | 61% | 1018.8 hPa | 0 mm | - | 133 W/m² | - |
| 1777241410 | 18.33° C | 59% | 1018.9 hPa | 0 mm | - | 112 W/m² | - |
| 1777241107 | 18.89° C | 58% | 1018.9 hPa | 0 mm | - | 271 W/m² | - |
| 1777240805 | 18.89° C | 57% | 1018.8 hPa | 0 mm | - | 340 W/m² | - |
| 1777240503 | 18.89° C | 56% | 1018.7 hPa | 0 mm | - | 306 W/m² | - |
| 1777240200 | 18.89° C | 58% | 1018.6 hPa | 0 mm | - | 384 W/m² | - |
| 1777239897 | 19.44° C | 57% | 1018.6 hPa | 0 mm | - | 403 W/m² | - |
| 1777239595 | 18.89° C | 58% | 1018.4 hPa | 0 mm | - | 412 W/m² | - |
| 1777239291 | 18.89° C | 59% | 1018.4 hPa | 0 mm | - | 430 W/m² | - |
| 1777238988 | 18.33° C | 59% | 1018.5 hPa | 0 mm | - | 454 W/m² | - |
* Rain latest hour (hover to see other rain measurements)
** Current wind speed in m/s (hover to see current wind gust speed)